METAR Data
IDs: Format: Raw Decoded Include TAF

Data at: 1148 UTC 15 Jul 2020

KLGU 151051Z AUTO 01003KT 10SM CLR 11/04 A3012 RMK AO2 SLP151 T01110044
KLGU 150951Z AUTO 00000KT 10SM CLR 14/05 A3011 RMK AO2 SLP145 T01390050
KLGU 150851Z AUTO 08003KT 10SM CLR 14/05 A3010 RMK AO2 SLP141 T01440050 51002
KLGU 150751Z AUTO 00000KT 10SM CLR 16/06 A3010 RMK AO2 SLP139 T01610061
KLGU 150651Z AUTO 00000KT 10SM CLR 16/06 A3009 RMK AO2 SLP140 T01610061 403060117
KLGU 150551Z AUTO 00000KT 10SM CLR 19/04 A3009 RMK AO2 SLP136 T01940039 10306 20161 51014
KLGU 150451Z AUTO 35009KT 10SM CLR 16/07 A3008 RMK AO2 SLP140 T01610067
KLGU 150351Z AUTO 01005KT 10SM CLR 19/07 A3006 RMK AO2 SLP132 T01940067
KLGU 150251Z AUTO 35007KT 10SM CLR 22/09 A3004 RMK AO2 SLP125 T02170094 53004
KLGU 150151Z AUTO 34006KT 10SM CLR 28/06 A3003 RMK AO2 SLP115 T02780061
KLGU 150051Z AUTO 36003KT 10SM CLR 30/02 A3003 RMK AO2 SLP117 T03000017
KLGU 142351Z AUTO 36006KT 10SM CLR 31/01 A3003 RMK AO2 SLP120 T03060011 10306 20256 58009
KLGU 142251Z AUTO 33005KT 10SM CLR 30/M01 A3004 RMK AO2 SLP123 T03001006
KLGU 142151Z AUTO 00000KT 10SM CLR 29/M01 A3005 RMK AO2 SLP124 T02941011
KLGU 142051Z AUTO 01005KT 10SM CLR 29/M01 A3006 RMK AO2 SLP126 T02891006 58010
KLGU 141951Z AUTO 32007KT 10SM CLR 28/01 A3007 RMK AO2 SLP128 T02830006
KLGU 141851Z AUTO 35007KT 10SM CLR 27/00 A3009 RMK AO2 SLP134 T02720000
KLGU 141751Z AUTO 33006KT 10SM CLR 26/03 A3009 RMK AO2 SLP136 T02560033 10256 20117 53002
KLGU 141651Z AUTO 33007KT 10SM CLR 24/07 A3009 RMK AO2 SLP134 T02390067
KLGU 141551Z AUTO 00000KT 10SM CLR 23/07 A3009 RMK AO2 SLP134 T02280067
KLGU 141451Z AUTO 17003KT 10SM CLR 20/08 A3009 RMK AO2 SLP135 T02000083 51012
KLGU 141351Z AUTO 27005KT 10SM CLR 18/07 A3008 RMK AO2 SLP132 T01780072
KLGU 141251Z AUTO 00000KT 10SM CLR 13/08 A3007 RMK AO2 SLP130 T01330078
KLGU 141151Z AUTO 22004KT 10SM CLR 12/08 A3005 RMK AO2 SLP124 T01170078 10217 20117 53018
KLGU 141051Z AUTO 02003KT 10SM CLR 13/07 A3002 RMK AO2 SLP112 T01280072
KLGU 140951Z AUTO 36003KT 10SM CLR 14/08 A3000 RMK AO2 SLP105 T01440083
KLGU 140851Z AUTO 00000KT 10SM CLR 16/08 A2999 RMK AO2 SLP099 T01610083 50001
KLGU 140751Z AUTO 00000KT 10SM CLR 18/08 A2999 RMK AO2 SLP097 T01780083
KLGU 140651Z AUTO 14004KT 10SM CLR 19/08 A2999 RMK AO2 SLP100 T01940078 403220133
KLGU 140551Z AUTO 14003KT 10SM CLR 21/07 A2998 RMK AO2 SLP098 T02110072 10322 20200 53019
KLGU 140451Z AUTO 34003KT 10SM CLR 22/07 A2997 RMK AO2 SLP093 T02220067
KLGU 140351Z AUTO 36009KT 10SM CLR 24/06 A2994 RMK AO2 SLP083 T02390056
KLGU 140251Z AUTO 36014KT 10SM CLR 26/07 A2992 RMK AO2 SLP079 T02560067 53011
KLGU 140151Z AUTO 36013G21KT 10SM CLR 29/09 A2990 RMK AO2 SLP068 T02890089
KLGU 140051Z AUTO 36011KT 10SM CLR 32/08 A2988 RMK AO2 SLP062 T03170078
KLGU 132351Z AUTO VRB04KT 10SM CLR 32/05 A2989 RMK AO2 SLP063 T03170050 10322 20256 56019